createdAt,value
2022-09-28T00:01:16.546Z,9.30
2022-09-28T00:03:45.136Z,9.30
2022-09-28T00:06:15.950Z,9.30
2022-09-28T00:08:45.547Z,9.30
2022-09-28T00:11:15.263Z,9.30
2022-09-28T00:13:43.931Z,9.30
2022-09-28T00:16:14.011Z,9.30
2022-09-28T00:18:42.613Z,9.30
2022-09-28T00:21:12.241Z,9.30
2022-09-28T00:24:00.557Z,9.30
2022-09-28T00:26:31.661Z,9.30
2022-09-28T00:29:01.523Z,9.20
2022-09-28T00:31:32.626Z,9.20
2022-09-28T00:34:01.834Z,9.10
2022-09-28T00:36:31.349Z,9.10
2022-09-28T00:39:00.212Z,9.00
2022-09-28T00:41:29.575Z,9.00
2022-09-28T00:44:30.813Z,8.90
2022-09-28T00:47:02.334Z,9.00
2022-09-28T00:49:35.189Z,9.00
2022-09-28T00:52:06.852Z,9.00
2022-09-28T00:54:35.811Z,9.00
2022-09-28T00:57:06.052Z,9.10
2022-09-28T00:59:35.015Z,9.00
2022-09-28T01:02:04.003Z,9.00
2022-09-28T01:04:32.366Z,9.10
2022-09-28T01:07:01.159Z,9.10
2022-09-28T01:09:31.175Z,9.20
2022-09-28T01:11:59.126Z,9.20
2022-09-28T01:14:28.380Z,9.20
2022-09-28T01:17:03.828Z,9.20
2022-09-28T01:20:08.266Z,9.20
2022-09-28T01:23:12.556Z,9.20
2022-09-28T01:25:51.727Z,9.20
2022-09-28T01:28:24.488Z,9.20
2022-09-28T01:31:04.280Z,9.20
2022-09-28T01:33:38.136Z,9.20
2022-09-28T01:36:11.087Z,9.20
2022-09-28T01:38:44.069Z,9.30
2022-09-28T01:41:14.127Z,9.30
2022-09-28T01:43:48.979Z,9.20
2022-09-28T01:46:22.342Z,9.20
2022-09-28T01:48:53.105Z,9.20
2022-09-28T01:51:27.552Z,9.20
2022-09-28T01:53:59.884Z,9.20
2022-09-28T01:56:39.673Z,9.20
2022-09-28T01:59:14.800Z,9.20
2022-09-28T02:01:48.707Z,9.20
2022-09-28T02:04:20.525Z,9.30
2022-09-28T02:06:54.791Z,9.20
2022-09-28T02:09:30.502Z,9.30
2022-09-28T02:12:07.025Z,9.20
2022-09-28T02:14:41.357Z,9.20
2022-09-28T02:17:11.131Z,9.20
2022-09-28T02:19:40.448Z,9.20
2022-09-28T02:22:23.197Z,9.30
2022-09-28T02:24:57.427Z,9.30
2022-09-28T02:27:35.448Z,9.30
2022-09-28T02:30:06.501Z,9.20
2022-09-28T02:32:40.209Z,9.20
2022-09-28T02:35:09.784Z,9.20
2022-09-28T02:37:37.759Z,9.10
2022-09-28T02:40:15.305Z,9.10
2022-09-28T02:42:55.015Z,9.20
2022-09-28T02:45:37.693Z,9.20
2022-09-28T02:48:24.068Z,9.20
2022-09-28T02:51:12.264Z,9.10
2022-09-28T02:54:05.684Z,9.10
2022-09-28T02:56:59.908Z,9.20
2022-09-28T02:59:41.503Z,9.10
2022-09-28T03:02:22.482Z,9.10
2022-09-28T03:05:12.294Z,9.10
2022-09-28T03:07:46.609Z,9.00
2022-09-28T03:10:18.933Z,9.00
2022-09-28T03:12:49.704Z,9.00
2022-09-28T03:15:24.202Z,9.00
2022-09-28T03:17:54.053Z,9.00
2022-09-28T03:20:22.289Z,9.00
2022-09-28T03:23:12.312Z,9.00
2022-09-28T03:25:38.202Z,8.90
2022-09-28T03:28:06.137Z,9.00
2022-09-28T03:30:39.329Z,9.00
2022-09-28T03:33:08.602Z,8.90
2022-09-28T03:35:36.815Z,8.90
2022-09-28T03:38:04.794Z,8.90
2022-09-28T03:40:35.069Z,8.90
2022-09-28T03:43:03.637Z,8.80
2022-09-28T03:45:31.628Z,8.70
2022-09-28T03:48:00.168Z,8.70
2022-09-28T03:50:29.444Z,8.70
2022-09-28T03:53:02.269Z,8.60
2022-09-28T03:55:30.174Z,8.60
2022-09-28T03:57:58.176Z,8.60
2022-09-28T04:00:26.067Z,8.50
2022-09-28T04:02:55.009Z,8.50
2022-09-28T04:05:22.846Z,8.40
2022-09-28T04:07:53.799Z,8.40
2022-09-28T04:10:21.999Z,8.40
2022-09-28T04:12:50.907Z,8.40
2022-09-28T04:15:18.872Z,8.40
2022-09-28T04:17:48.268Z,8.40
2022-09-28T04:20:33.202Z,8.40
2022-09-28T04:23:05.847Z,8.40
2022-09-28T04:25:33.844Z,8.40
2022-09-28T04:28:19.885Z,8.40
2022-09-28T04:30:48.192Z,8.40
2022-09-28T04:33:17.237Z,8.40
2022-09-28T04:35:46.076Z,8.40
2022-09-28T04:38:15.521Z,8.40
2022-09-28T04:40:43.525Z,8.50
2022-09-28T04:43:11.564Z,8.50
2022-09-28T04:45:39.647Z,8.50
2022-09-28T04:48:11.525Z,8.60
2022-09-28T04:51:12.237Z,8.50
2022-09-28T04:53:41.464Z,8.50
2022-09-28T04:56:12.473Z,8.60
2022-09-28T04:58:42.223Z,8.60
2022-09-28T05:01:13.386Z,8.60
2022-09-28T05:04:01.694Z,8.70
2022-09-28T05:06:43.362Z,8.70
2022-09-28T05:09:12.625Z,8.60
2022-09-28T05:11:40.552Z,8.70
2022-09-28T05:14:13.552Z,8.70
2022-09-28T05:16:41.831Z,8.60
2022-09-28T05:19:34.743Z,8.70
2022-09-28T05:22:04.800Z,8.70
2022-09-28T05:24:43.048Z,8.70
2022-09-28T05:27:11.037Z,8.70
2022-09-28T05:29:38.968Z,8.70
2022-09-28T05:32:25.483Z,8.70
2022-09-28T05:35:12.631Z,8.70
2022-09-28T09:10:22.967Z,12.50
2022-09-28T09:13:05.039Z,13.50
2022-09-28T09:15:49.540Z,13.70
2022-09-28T09:18:38.118Z,13.70
2022-09-28T09:21:41.363Z,13.50
2022-09-28T09:24:27.022Z,13.40
2022-09-28T09:27:19.568Z,13.40
2022-09-28T09:30:01.110Z,13.50
2022-09-28T09:32:44.368Z,13.60
2022-09-28T09:35:31.576Z,13.90
2022-09-28T09:38:39.399Z,15.00
2022-09-28T09:41:40.836Z,16.60
2022-09-28T09:44:45.032Z,19.00
2022-09-28T09:47:40.704Z,19.10
2022-09-28T09:50:29.909Z,19.90
2022-09-28T09:53:03.755Z,20.00
2022-09-28T09:55:37.565Z,19.70
2022-09-28T09:58:26.280Z,19.50
2022-09-28T10:01:09.184Z,19.80
2022-09-28T10:04:20.096Z,19.90
2022-09-28T10:06:50.541Z,21.10
2022-09-28T10:09:23.362Z,21.80
2022-09-28T10:11:52.155Z,22.60
2022-09-28T10:14:22.304Z,22.50
2022-09-28T10:17:04.661Z,22.90
2022-09-28T10:19:51.251Z,22.40
2022-09-28T10:22:38.039Z,22.30
2022-09-28T10:25:13.604Z,22.40
2022-09-28T10:27:45.843Z,21.30
2022-09-28T10:30:18.886Z,20.00
2022-09-28T10:32:50.219Z,19.20
2022-09-28T10:35:24.218Z,18.70
2022-09-28T10:38:01.308Z,18.00
2022-09-28T10:40:48.758Z,17.40
2022-09-28T10:43:25.839Z,16.60
2022-09-28T10:46:03.784Z,16.70
2022-09-28T10:48:48.179Z,17.90
2022-09-28T10:51:17.847Z,18.40
2022-09-28T10:54:01.386Z,18.70
2022-09-28T10:56:46.482Z,18.10
2022-09-28T10:59:40.691Z,18.50
2022-09-28T11:02:37.635Z,18.80
2022-09-28T11:05:23.423Z,19.00
2022-09-28T11:07:55.765Z,18.50
2022-09-28T11:10:30.620Z,17.60
2022-09-28T11:13:04.495Z,17.00
2022-09-28T11:15:34.653Z,16.20
2022-09-28T11:18:20.300Z,16.20
2022-09-28T11:20:49.785Z,16.10
2022-09-28T11:23:21.839Z,15.60
2022-09-28T11:26:00.925Z,15.20
2022-09-28T11:28:33.246Z,15.00
2022-09-28T11:31:07.900Z,14.80
2022-09-28T11:34:14.474Z,14.40
2022-09-28T11:37:08.862Z,14.10
2022-09-28T11:39:46.082Z,14.30
2022-09-28T11:42:23.513Z,14.70
2022-09-28T11:44:56.371Z,14.90
2022-09-28T11:47:43.212Z,15.00
2022-09-28T11:50:24.430Z,15.10
2022-09-28T11:53:02.610Z,14.90
2022-09-28T11:55:36.108Z,14.70
2022-09-28T11:58:12.577Z,14.40
2022-09-28T12:00:45.748Z,14.00
2022-09-28T12:03:17.760Z,13.50
2022-09-28T12:05:50.305Z,13.30
2022-09-28T12:08:25.336Z,13.10
2022-09-28T12:11:10.650Z,13.00
2022-09-28T12:14:02.221Z,13.00
2022-09-28T12:17:04.369Z,13.10
2022-09-28T12:19:29.343Z,13.20
2022-09-28T12:22:01.314Z,13.30
2022-09-28T12:24:34.385Z,13.30
2022-09-28T12:27:08.398Z,13.20
2022-09-28T12:29:47.931Z,13.10
2022-09-28T12:32:27.565Z,13.00
2022-09-28T12:34:55.643Z,13.00
2022-09-28T12:37:34.022Z,13.10
2022-09-28T12:40:22.222Z,13.20
2022-09-28T12:43:15.691Z,13.10
2022-09-28T12:46:11.463Z,12.90
2022-09-28T12:50:13.721Z,12.90
2022-09-28T12:52:17.188Z,12.70
2022-09-28T12:55:25.245Z,12.80
2022-09-28T12:58:00.476Z,12.80
2022-09-28T13:00:35.442Z,12.70
2022-09-28T13:03:34.957Z,12.70
2022-09-28T13:06:25.048Z,12.70
2022-09-28T13:09:09.107Z,12.50
2022-09-28T13:11:47.222Z,12.50
2022-09-28T13:14:34.806Z,12.60
2022-09-28T13:17:15.935Z,12.60
2022-09-28T13:19:51.799Z,12.50
2022-09-28T13:22:29.005Z,12.50
2022-09-28T13:25:00.487Z,12.50
2022-09-28T13:27:34.001Z,12.60
2022-09-28T13:30:06.272Z,12.60
2022-09-28T13:32:36.194Z,12.70
2022-09-28T13:35:05.370Z,12.70
2022-09-28T13:37:34.390Z,12.70
2022-09-28T13:40:06.057Z,12.70
2022-09-28T13:43:07.646Z,12.70
2022-09-28T13:45:51.482Z,12.90
2022-09-28T13:48:22.272Z,12.90
2022-09-28T13:51:09.923Z,13.00
2022-09-28T13:53:57.167Z,13.20
2022-09-28T13:56:35.015Z,13.30
2022-09-28T13:59:11.388Z,13.20
2022-09-28T14:01:43.291Z,13.20
2022-09-28T14:04:17.481Z,13.20
2022-09-28T14:06:52.421Z,13.30
2022-09-28T14:09:43.598Z,13.20
2022-09-28T14:12:44.298Z,13.10
2022-09-28T14:15:41.654Z,13.00
2022-09-28T14:18:23.396Z,12.90
2022-09-28T14:21:20.540Z,12.80
2022-09-28T14:24:01.339Z,12.80
2022-09-28T14:26:51.559Z,12.80
2022-09-28T14:29:28.556Z,12.90
2022-09-28T14:31:59.351Z,13.00
2022-09-28T14:34:34.126Z,13.20
2022-09-28T14:37:21.859Z,13.30
2022-09-28T14:40:08.424Z,13.30
2022-09-28T14:42:36.395Z,13.40
2022-09-28T14:45:36.268Z,13.60
2022-09-28T14:48:14.344Z,13.90
2022-09-28T14:50:42.492Z,14.10
2022-09-28T14:53:19.516Z,14.00
2022-09-28T14:55:50.271Z,14.00
2022-09-28T14:58:23.819Z,13.90
2022-09-28T15:01:00.752Z,13.80
2022-09-28T15:03:32.086Z,13.90
2022-09-28T15:06:01.424Z,13.60
2022-09-28T15:08:39.821Z,13.60
2022-09-28T15:11:13.166Z,13.70
2022-09-28T15:13:41.485Z,13.60
2022-09-28T15:16:12.514Z,13.60
2022-09-28T15:19:13.318Z,13.40
2022-09-28T15:21:43.114Z,13.20
2022-09-28T15:24:28.745Z,13.20
2022-09-28T15:26:57.608Z,13.00
2022-09-28T15:29:27.237Z,12.90
2022-09-28T15:31:55.100Z,12.80
2022-09-28T15:34:50.416Z,12.70
2022-09-28T15:37:22.341Z,12.70
2022-09-28T15:39:52.026Z,12.70
2022-09-28T15:42:20.415Z,12.50
2022-09-28T15:45:26.375Z,12.50
2022-09-28T15:48:20.738Z,12.40
2022-09-28T15:51:00.687Z,12.10
2022-09-28T15:53:30.035Z,11.90
2022-09-28T15:56:03.496Z,11.90
2022-09-28T15:58:31.418Z,12.00
2022-09-28T16:01:28.338Z,12.10
2022-09-28T16:03:56.472Z,12.10
2022-09-28T16:06:25.702Z,12.10
2022-09-28T16:08:53.821Z,11.90
2022-09-28T16:11:26.355Z,11.70
2022-09-28T16:13:57.355Z,11.00
2022-09-28T16:16:29.876Z,10.60
2022-09-28T16:19:00.670Z,10.50
2022-09-28T16:21:43.056Z,10.30
2022-09-28T16:24:21.442Z,10.30
2022-09-28T16:26:55.766Z,10.20
2022-09-28T16:29:28.201Z,10.20
2022-09-28T16:31:56.118Z,10.20
2022-09-28T16:34:28.494Z,10.20
2022-09-28T16:37:00.240Z,10.20
2022-09-28T16:39:28.137Z,10.30
2022-09-28T16:42:01.745Z,10.20
2022-09-28T16:44:31.774Z,10.20
2022-09-28T16:47:00.819Z,10.30
2022-09-28T16:49:31.557Z,10.30
2022-09-28T16:52:01.145Z,10.30
2022-09-28T16:54:47.839Z,10.30
2022-09-28T16:57:16.732Z,10.40
2022-09-28T16:59:44.617Z,10.40
2022-09-28T17:05:15.779Z,10.40
2022-09-28T17:07:45.769Z,10.40
2022-09-28T17:10:19.136Z,10.40
2022-09-28T17:12:47.511Z,10.50
2022-09-28T17:15:18.596Z,10.50
2022-09-28T17:17:47.796Z,10.50
2022-09-28T17:20:22.737Z,10.40
2022-09-28T17:22:52.072Z,10.40
2022-09-28T17:25:20.253Z,10.40
2022-09-28T17:27:49.766Z,10.40
2022-09-28T17:30:20.314Z,10.40
2022-09-28T17:32:51.473Z,10.30
2022-09-28T17:35:24.997Z,10.40
2022-09-28T17:37:54.929Z,10.30
2022-09-28T17:40:25.266Z,10.30
2022-09-28T17:42:54.988Z,10.30
2022-09-28T17:45:23.540Z,10.30
2022-09-28T17:47:51.424Z,10.20
2022-09-28T17:50:22.127Z,10.20
2022-09-28T17:52:52.281Z,10.20
2022-09-28T17:55:28.512Z,10.20
2022-09-28T17:57:57.126Z,10.20
2022-09-28T18:00:27.333Z,10.20
2022-09-28T18:02:55.732Z,10.20
2022-09-28T18:05:24.795Z,10.20
2022-09-28T18:07:53.798Z,10.20
2022-09-28T18:10:26.661Z,10.20
2022-09-28T18:12:54.756Z,10.10
2022-09-28T18:15:23.008Z,10.10
2022-09-28T18:17:50.915Z,10.10
2022-09-28T18:20:19.736Z,10.20
2022-09-28T18:22:48.015Z,10.10
2022-09-28T18:25:16.764Z,10.10
2022-09-28T18:27:46.045Z,10.10
2022-09-28T18:30:14.061Z,10.10
2022-09-28T18:32:42.174Z,10.10
2022-09-28T18:35:11.172Z,10.00
2022-09-28T18:37:39.851Z,10.00
2022-09-28T18:40:09.347Z,10.00
2022-09-28T18:42:37.335Z,10.00
2022-09-28T18:45:10.749Z,10.00
2022-09-28T18:47:38.901Z,10.00
2022-09-28T18:50:08.086Z,10.00
2022-09-28T18:52:37.284Z,10.00
2022-09-28T18:55:07.602Z,10.00
2022-09-28T18:57:36.187Z,10.00
2022-09-28T19:00:08.904Z,10.00
2022-09-28T19:02:37.286Z,10.00
2022-09-28T19:05:06.738Z,10.10
2022-09-28T19:07:34.876Z,10.10
2022-09-28T19:10:02.769Z,10.10
2022-09-28T19:12:30.635Z,10.10
2022-09-28T19:14:59.562Z,10.10
2022-09-28T19:17:29.020Z,10.10
2022-09-28T19:19:56.941Z,10.10
2022-09-28T19:22:24.816Z,10.00
2022-09-28T19:24:52.708Z,10.00
2022-09-28T19:27:20.703Z,10.00
2022-09-28T19:29:48.839Z,10.00
2022-09-28T19:32:16.802Z,9.90
2022-09-28T19:34:46.076Z,10.00
2022-09-28T19:37:14.014Z,9.90
2022-09-28T19:39:41.904Z,9.90
2022-09-28T19:42:09.880Z,9.90
2022-09-28T19:44:39.128Z,9.80
2022-09-28T19:47:09.819Z,9.80
2022-09-28T19:49:39.213Z,9.80
2022-09-28T19:52:15.648Z,9.80
2022-09-28T19:54:45.136Z,9.70
2022-09-28T19:57:15.686Z,9.70
2022-09-28T19:59:43.846Z,9.60
2022-09-28T20:02:12.061Z,9.60
2022-09-28T20:04:40.066Z,9.60
2022-09-28T20:07:11.507Z,9.50
2022-09-28T20:09:39.360Z,9.50
2022-09-28T20:12:07.382Z,9.50
2022-09-28T20:14:38.243Z,9.50
2022-09-28T20:17:07.503Z,9.50
2022-09-28T20:19:35.999Z,9.50
2022-09-28T20:22:03.908Z,9.50
2022-09-28T20:24:33.747Z,9.40
2022-09-28T20:27:02.400Z,9.40
2022-09-28T20:29:31.527Z,9.40
2022-09-28T20:32:00.369Z,9.40
2022-09-28T20:34:28.287Z,9.50
2022-09-28T20:36:56.356Z,9.50
2022-09-28T20:39:24.333Z,9.40
2022-09-28T20:41:54.601Z,9.30
2022-09-28T20:44:22.482Z,9.30
2022-09-28T20:46:51.487Z,9.30
2022-09-28T20:49:19.452Z,9.20
2022-09-28T20:51:47.410Z,9.30
2022-09-28T20:54:15.316Z,9.30
2022-09-28T20:56:43.248Z,9.40
2022-09-28T20:59:13.255Z,9.40
2022-09-28T21:01:41.572Z,9.40
2022-09-28T21:04:10.686Z,9.40
2022-09-28T21:06:40.251Z,9.40
2022-09-28T21:09:09.543Z,9.50
2022-09-28T21:11:37.780Z,9.50
2022-09-28T21:14:09.527Z,9.40
2022-09-28T21:16:39.485Z,9.40
2022-09-28T21:19:07.504Z,9.40
2022-09-28T21:21:35.339Z,9.30
2022-09-28T21:24:03.405Z,9.30
2022-09-28T21:26:32.156Z,9.30
2022-09-28T21:29:01.992Z,9.30
2022-09-28T21:31:32.491Z,9.20
2022-09-28T21:34:04.670Z,9.20
2022-09-28T21:36:33.199Z,9.30
2022-09-28T21:39:01.089Z,9.30
2022-09-28T21:41:29.661Z,9.30
2022-09-28T21:43:57.622Z,9.30
2022-09-28T21:46:26.636Z,9.30
2022-09-28T21:48:54.768Z,9.30
2022-09-28T21:51:24.437Z,9.30
2022-09-28T21:53:53.953Z,9.30
2022-09-28T21:56:23.006Z,9.30
2022-09-28T21:58:51.504Z,9.30
2022-09-28T22:01:21.094Z,9.30
2022-09-28T22:03:50.889Z,9.30
2022-09-28T22:06:20.506Z,9.30
2022-09-28T22:08:50.734Z,9.30
2022-09-28T22:11:21.045Z,9.40
2022-09-28T22:13:50.777Z,9.40
2022-09-28T22:16:20.895Z,9.40
2022-09-28T22:18:49.657Z,9.40
2022-09-28T22:21:19.344Z,9.40
2022-09-28T22:23:48.807Z,9.50
2022-09-28T22:26:19.374Z,9.50
2022-09-28T22:28:49.331Z,9.50
2022-09-28T22:31:18.560Z,9.50
2022-09-28T22:33:46.586Z,9.50
2022-09-28T22:36:16.946Z,9.50
2022-09-28T22:38:45.357Z,9.50
2022-09-28T22:41:15.781Z,9.40
2022-09-28T22:43:44.316Z,9.40
2022-09-28T22:46:14.023Z,9.40
2022-09-28T22:48:43.170Z,9.40
2022-09-28T22:51:11.141Z,9.30
2022-09-28T22:53:39.205Z,9.40
2022-09-28T22:56:08.851Z,9.30
2022-09-28T22:58:39.057Z,9.30
2022-09-28T23:01:08.528Z,9.30
2022-09-28T23:03:36.872Z,9.30
2022-09-28T23:06:05.103Z,9.20
2022-09-28T23:08:33.107Z,9.20
2022-09-28T23:11:00.965Z,9.20
2022-09-28T23:13:30.956Z,9.20
2022-09-28T23:16:01.902Z,9.20
2022-09-28T23:18:31.840Z,9.20
2022-09-28T23:21:01.590Z,9.20
2022-09-28T23:23:29.961Z,9.20
2022-09-28T23:25:58.630Z,9.20
2022-09-28T23:28:27.689Z,9.10
2022-09-28T23:30:55.745Z,9.10
2022-09-28T23:33:24.997Z,9.10
2022-09-28T23:35:52.882Z,9.00
2022-09-28T23:38:20.763Z,9.00
2022-09-28T23:40:48.977Z,9.00
2022-09-28T23:43:16.914Z,9.00
2022-09-28T23:45:45.443Z,9.00
2022-09-28T23:48:14.846Z,9.00
2022-09-28T23:50:44.933Z,9.00
2022-09-28T23:53:13.587Z,9.00
2022-09-28T23:55:42.392Z,8.90
2022-09-28T23:58:10.381Z,8.90
